Time;durP1;ratioP1;P1;durP2;ratioP2;P2;SDS_P1;SDS_P2;PMS_P1;PMS_P2;Temp;Humidity;BMP_temperature;BMP_pressure;BME280_temperature;BME280_humidity;BME280_pressure;Samples;Min_cycle;Max_cycle;Signal;HPM_P1;HPM_P2
2021/09/28 00:01:33;;;;;;;13.77;6.50;;;;;;;16.16;82.28;101543.66;5058222;28;20181;-66
2021/09/28 00:03:58;;;;;;;10.63;5.70;;;;;;;15.87;83.09;101548.97;5058008;28;20183;-66
2021/09/28 00:06:23;;;;;;;9.00;5.93;;;;;;;15.81;83.66;101557.69;5058135;28;20437;-67
2021/09/28 00:08:49;;;;;;;6.93;6.17;;;;;;;15.81;83.15;101554.19;5058040;28;20283;-66
2021/09/28 00:11:14;;;;;;;6.60;6.00;;;;;;;15.68;83.90;101566.41;5056952;28;20181;-67
2021/09/28 00:13:40;;;;;;;10.60;6.30;;;;;;;15.75;83.85;101570.81;5058183;28;20440;-67
2021/09/28 00:16:05;;;;;;;10.40;6.30;;;;;;;15.79;83.61;101569.94;5058206;28;20522;-66
2021/09/28 00:18:31;;;;;;;8.23;5.90;;;;;;;15.63;83.91;101571.66;5058310;28;20172;-66
2021/09/28 00:20:56;;;;;;;8.87;6.37;;;;;;;16.07;82.33;101569.09;5057845;28;20162;-66
2021/09/28 00:23:22;;;;;;;12.80;7.10;;;;;;;15.93;82.47;101577.88;5040522;28;20180;-65
2021/09/28 00:25:49;;;;;;;10.80;7.40;;;;;;;15.91;82.94;101570.84;5057980;28;20220;-67
2021/09/28 00:28:15;;;;;;;12.00;6.13;;;;;;;16.00;82.78;101576.97;5057757;28;20162;-68
2021/09/28 00:30:40;;;;;;;9.80;6.50;;;;;;;15.92;82.21;101568.22;5057701;28;20417;-67
2021/09/28 00:33:05;;;;;;;9.60;6.73;;;;;;;16.12;81.47;101568.22;5058388;28;20374;-68
2021/09/28 00:35:31;;;;;;;7.17;6.47;;;;;;;16.17;81.62;101570.88;5057915;28;20220;-68
2021/09/28 00:37:56;;;;;;;8.27;7.07;;;;;;;15.97;81.66;101569.09;5057945;28;20211;-68
2021/09/28 00:40:21;;;;;;;10.70;7.07;;;;;;;16.04;81.59;101575.25;5058273;28;20492;-67
2021/09/28 00:42:47;;;;;;;12.90;6.67;;;;;;;15.86;82.24;101575.22;5058049;28;20370;-67
2021/09/28 00:45:12;;;;;;;12.60;7.17;;;;;;;15.81;82.18;101576.09;5057816;28;20543;-67
2021/09/28 00:47:37;;;;;;;11.53;7.27;;;;;;;15.88;81.64;101579.59;5058162;28;20178;-67
2021/09/28 00:50:04;;;;;;;9.67;6.77;;;;;;;15.89;82.45;101588.41;5057595;28;20314;-68
2021/09/28 00:52:31;;;;;;;9.97;7.57;;;;;;;16.04;81.48;101585.75;5023842;28;20468;-67
2021/09/28 00:54:56;;;;;;;9.33;6.80;;;;;;;15.78;82.29;101591.84;5040902;28;20383;-67
2021/09/28 00:57:21;;;;;;;9.37;6.97;;;;;;;15.69;82.69;101589.19;5057721;28;20413;-67
2021/09/28 00:59:47;;;;;;;10.63;7.13;;;;;;;15.62;82.97;101595.31;5057627;28;20457;-67
2021/09/28 01:02:13;;;;;;;8.23;6.63;;;;;;;15.72;82.51;101601.47;5058199;28;20165;-68
2021/09/28 01:04:39;;;;;;;11.67;6.23;;;;;;;16.17;81.90;101595.41;5057624;28;20166;-68
2021/09/28 01:07:05;;;;;;;11.67;6.90;;;;;;;15.73;82.40;101604.09;5057507;28;20432;-67
2021/09/28 01:09:32;;;;;;;12.80;7.37;;;;;;;15.71;82.81;101611.13;5058390;28;20196;-67
2021/09/28 01:11:57;;;;;;;12.80;7.30;;;;;;;15.87;82.02;101611.16;5057687;28;20390;-69
2021/09/28 01:14:23;;;;;;;12.77;7.70;;;;;;;15.42;84.17;101619.78;5058892;28;20635;-67
2021/09/28 01:16:48;;;;;;;13.60;8.83;;;;;;;15.31;84.10;101624.97;5044622;28;20170;-66
2021/09/28 01:19:13;;;;;;;16.63;8.10;;;;;;;15.38;83.96;101620.63;5062360;28;20205;-67
2021/09/28 01:21:39;;;;;;;13.80;7.83;;;;;;;15.39;83.80;101622.41;5061080;28;20174;-67
2021/09/28 01:24:06;;;;;;;16.67;12.00;;;;;;;15.68;83.89;101620.72;5061541;28;20201;-67
2021/09/28 01:26:31;;;;;;;14.23;8.50;;;;;;;15.59;82.62;101626.84;5061245;28;20170;-67
2021/09/28 01:28:57;;;;;;;10.27;8.63;;;;;;;15.48;83.56;101632.94;5060993;28;20715;-68
2021/09/28 01:31:25;;;;;;;10.97;8.30;;;;;;;15.53;82.82;101639.97;5059264;28;20177;-67
2021/09/28 01:33:52;;;;;;;14.13;9.30;;;;;;;15.66;82.61;101632.13;5060937;28;20176;-68
2021/09/28 01:36:17;;;;;;;13.80;9.43;;;;;;;15.65;82.83;101638.28;5060804;28;20412;-67
2021/09/28 01:38:42;;;;;;;13.83;9.97;;;;;;;15.24;83.92;101640.72;5043823;28;20654;-67
2021/09/28 01:41:08;;;;;;;16.37;9.40;;;;;;;15.45;83.74;101640.81;5060719;28;20535;-68
2021/09/28 01:43:33;;;;;;;13.17;10.50;;;;;;;15.52;82.62;101635.56;5060843;28;20541;-69
2021/09/28 01:46:01;;;;;;;13.57;10.10;;;;;;;15.42;83.04;101640.78;5060903;28;20168;-68
2021/09/28 01:48:39;;;;;;;12.23;9.40;;;;;;;15.41;83.07;101643.41;5041482;28;20259;-67
2021/09/28 01:51:05;;;;;;;17.93;10.60;;;;;;;15.22;83.47;101645.97;5023246;28;20832;-67
2021/09/28 01:53:30;;;;;;;13.30;9.43;;;;;;;15.37;83.58;101639.91;5023501;28;20495;-67
2021/09/28 01:55:56;;;;;;;13.73;10.00;;;;;;;15.39;82.41;101645.19;5040656;28;20454;-67
2021/09/28 01:58:21;;;;;;;14.03;10.50;;;;;;;15.53;82.17;101637.34;5040902;28;20201;-68
2021/09/28 02:00:46;;;;;;;14.63;10.10;;;;;;;15.35;82.56;101639.03;5040608;28;20281;-68
2021/09/28 02:03:12;;;;;;;12.10;9.80;;;;;;;15.43;82.72;101647.81;5040517;28;20178;-67
2021/09/28 02:05:39;;;;;;;15.13;10.10;;;;;;;15.42;82.59;101643.41;5040891;28;20159;-67
2021/09/28 02:08:05;;;;;;;13.03;9.20;;;;;;;15.37;82.61;101652.16;5023402;28;20501;-67
2021/09/28 02:10:30;;;;;;;13.03;8.93;;;;;;;15.44;82.73;101652.19;5040448;28;20427;-67
2021/09/28 02:12:56;;;;;;;15.17;10.00;;;;;;;15.32;82.71;101647.75;5040970;28;20173;-67
2021/09/28 02:15:21;;;;;;;10.70;9.37;;;;;;;15.29;82.70;101655.63;5040162;28;20231;-68
2021/09/28 02:17:46;;;;;;;14.40;11.23;;;;;;;15.26;82.64;101650.38;5040234;28;20185;-67
2021/09/28 02:20:12;;;;;;;18.37;10.43;;;;;;;15.47;81.72;101652.19;5023222;28;20225;-67
2021/09/28 02:22:37;;;;;;;10.67;9.17;;;;;;;15.12;83.18;101652.03;5040483;28;20178;-67
2021/09/28 02:25:04;;;;;;;13.07;9.90;;;;;;;15.23;82.25;101663.47;5040005;28;20173;-67
2021/09/28 02:27:29;;;;;;;13.90;9.27;;;;;;;15.18;82.56;101657.34;5039492;28;20575;-67
2021/09/28 02:29:55;;;;;;;17.33;10.37;;;;;;;15.38;82.44;101653.91;5039795;28;20454;-67
2021/09/28 02:32:20;;;;;;;12.30;9.63;;;;;;;15.25;82.62;101663.47;5022588;28;20185;-67
2021/09/28 02:34:46;;;;;;;14.53;9.73;;;;;;;15.36;81.64;101667.06;5040558;28;20190;-67
2021/09/28 02:37:12;;;;;;;15.93;10.83;;;;;;;15.20;82.15;101666.09;5039721;28;20432;-66
2021/09/28 02:39:39;;;;;;;12.10;10.17;;;;;;;15.16;82.58;101669.56;5039697;28;20240;-67
2021/09/28 02:42:05;;;;;;;15.03;10.60;;;;;;;15.17;83.04;101671.34;5040346;28;20632;-67
2021/09/28 02:44:30;;;;;;;12.90;11.00;;;;;;;15.20;82.72;101675.75;5039748;28;20383;-67
2021/09/28 02:46:56;;;;;;;13.57;10.53;;;;;;;14.89;83.29;101676.41;5039652;28;20478;-66
2021/09/28 02:49:21;;;;;;;16.60;11.27;;;;;;;14.80;83.46;101673.72;5040042;28;20198;-67
2021/09/28 02:51:46;;;;;;;11.30;10.10;;;;;;;15.01;83.24;101678.25;5039261;28;20249;-67
2021/09/28 02:54:11;;;;;;;12.47;10.83;;;;;;;15.03;83.24;101679.13;5039763;28;20188;-68
2021/09/28 02:56:37;;;;;;;15.80;10.77;;;;;;;15.11;83.02;101671.28;5039747;28;20174;-67
2021/09/28 02:59:02;;;;;;;20.03;11.60;;;;;;;14.60;85.03;101689.28;5039513;28;20443;-68
2021/09/28 03:01:28;;;;;;;18.73;12.67;;;;;;;14.87;83.71;101686.03;5039333;28;20236;-66
2021/09/28 03:03:53;;;;;;;22.03;12.93;;;;;;;14.85;83.09;101684.28;5022559;28;20190;-68
2021/09/28 03:06:18;;;;;;;18.03;12.13;;;;;;;14.91;83.26;101689.53;5039250;28;20174;-68
2021/09/28 03:08:44;;;;;;;15.00;11.80;;;;;;;14.97;82.99;101686.97;5039218;28;20244;-67
2021/09/28 03:11:10;;;;;;;18.93;12.83;;;;;;;14.77;83.68;101689.44;5039525;28;20194;-67
2021/09/28 03:13:35;;;;;;;20.97;13.33;;;;;;;14.92;83.40;101686.06;5039150;28;20257;-68
2021/09/28 03:16:00;;;;;;;22.73;18.10;;;;;;;14.90;83.20;101691.31;5022008;28;20474;-67
2021/09/28 03:18:26;;;;;;;24.67;15.30;;;;;;;14.90;83.01;101691.31;5039392;28;20162;-67
2021/09/28 03:20:51;;;;;;;16.20;12.67;;;;;;;14.62;83.72;101692.81;5038992;28;20198;-68
2021/09/28 03:23:16;;;;;;;21.37;13.20;;;;;;;14.49;84.57;101699.69;5039065;28;20185;-67
2021/09/28 03:25:42;;;;;;;20.00;13.73;;;;;;;14.64;83.76;101699.00;5039281;28;20170;-66
2021/09/28 03:28:08;;;;;;;17.37;13.70;;;;;;;14.78;83.49;101692.09;5038832;28;20178;-68
2021/09/28 03:30:33;;;;;;;15.50;12.00;;;;;;;14.63;82.68;101694.59;5038647;28;20186;-67
2021/09/28 03:32:59;;;;;;;18.97;14.23;;;;;;;14.51;83.66;101695.34;5022184;28;20495;-68
2021/09/28 03:35:24;;;;;;;21.73;13.43;;;;;;;14.47;83.63;101697.03;5038537;28;20447;-67
2021/09/28 03:37:52;;;;;;;21.40;14.63;;;;;;;14.55;83.90;101701.50;5038675;28;20420;-67
2021/09/28 03:40:18;;;;;;;23.93;14.77;;;;;;;14.77;82.54;101700.81;5039026;28;20245;-67
2021/09/28 03:42:43;;;;;;;16.80;12.37;;;;;;;14.53;83.19;101703.22;5038688;28;20839;-67
2021/09/28 03:45:09;;;;;;;20.80;12.10;;;;;;;14.72;82.71;101713.06;5038586;28;20446;-67
2021/09/28 03:47:34;;;;;;;18.13;12.60;;;;;;;14.69;82.60;101714.75;5027714;28;20193;-67
2021/09/28 03:50:00;;;;;;;17.30;11.97;;;;;;;14.65;82.60;101713.84;5038310;28;20209;-67
2021/09/28 03:52:25;;;;;;;17.63;12.80;;;;;;;14.65;82.70;101713.84;5038516;28;20222;-67
2021/09/28 03:54:50;;;;;;;17.43;11.30;;;;;;;14.52;82.66;101720.72;5038824;28;20166;-68
2021/09/28 03:57:16;;;;;;;18.83;10.83;;;;;;;14.47;82.56;101722.41;5038424;28;20201;-68
2021/09/28 03:59:41;;;;;;;15.93;11.60;;;;;;;14.38;83.71;101727.56;5038492;28;20408;-67
2021/09/28 04:02:06;;;;;;;42.30;11.93;;;;;;;14.56;82.50;101727.75;5039093;28;20170;-68
2021/09/28 04:04:32;;;;;;;18.63;12.23;;;;;;;14.52;82.72;101740.81;5038354;28;20174;-70
2021/09/28 04:06:59;;;;;;;15.70;9.47;;;;;;;14.66;82.58;101731.38;5038383;28;20166;-68
2021/09/28 04:09:24;;;;;;;10.90;9.70;;;;;;;14.37;82.83;101738.91;5038606;28;20255;-68
2021/09/28 04:11:49;;;;;;;18.00;9.17;;;;;;;14.33;82.83;101735.41;5038118;28;20507;-69
2021/09/28 04:14:15;;;;;;;11.87;9.13;;;;;;;14.39;82.85;101735.44;5038170;28;20189;-66
2021/09/28 04:16:40;;;;;;;15.40;9.13;;;;;;;14.46;81.82;101737.28;5021432;28;20388;-67
2021/09/28 04:19:06;;;;;;;15.80;9.20;;;;;;;14.37;81.72;101747.69;5038183;28;20432;-66
2021/09/28 04:21:32;;;;;;;10.40;7.97;;;;;;;14.41;82.08;101743.34;5038051;28;20180;-66
2021/09/28 04:23:57;;;;;;;14.10;8.70;;;;;;;14.18;83.01;101753.59;5021266;28;20557;-66
2021/09/28 04:26:23;;;;;;;12.67;8.20;;;;;;;14.40;81.92;101750.34;5037969;28;20426;-67
2021/09/28 04:28:48;;;;;;;13.13;9.63;;;;;;;14.08;82.63;101757.84;5037872;28;20591;-68
2021/09/28 04:31:16;;;;;;;12.33;8.90;;;;;;;13.89;83.74;101762.00;5038286;28;20216;-68
2021/09/28 04:33:42;;;;;;;12.77;8.10;;;;;;;13.93;83.56;101755.94;5038007;28;20162;-66
2021/09/28 04:36:08;;;;;;;12.73;9.40;;;;;;;13.85;83.64;101768.94;5038024;28;20413;-66
2021/09/28 04:38:33;;;;;;;15.80;8.43;;;;;;;14.03;83.04;101762.16;5038298;28;20769;-66
2021/09/28 04:41:00;;;;;;;31.83;11.73;;;;;;;14.18;82.63;101772.84;5037792;28;20218;-66
2021/09/28 04:43:25;;;;;;;11.00;8.20;;;;;;;14.40;82.12;101775.69;5037939;28;20166;-66
2021/09/28 04:45:51;;;;;;;11.40;8.30;;;;;;;14.28;82.02;101776.44;5038445;28;20372;-66
2021/09/28 04:48:16;;;;;;;13.03;8.80;;;;;;;14.14;82.34;101795.53;5037921;28;20566;-66
2021/09/28 04:50:41;;;;;;;15.97;10.97;;;;;;;14.15;82.05;101793.75;5040927;28;20590;-68
2021/09/28 04:53:07;;;;;;;16.47;7.57;;;;;;;14.30;81.14;101791.34;5042258;28;20433;-66
2021/09/28 04:55:32;;;;;;;13.97;9.17;;;;;;;14.30;81.50;101800.94;5041584;28;20471;-66
2021/09/28 04:57:57;;;;;;;12.70;8.30;;;;;;;14.20;81.73;101801.72;5041707;28;20489;-66
2021/09/28 05:00:23;;;;;;;10.10;8.27;;;;;;;13.94;82.35;101804.88;5041896;28;20443;-67
2021/09/28 05:02:48;;;;;;;11.60;8.53;;;;;;;14.27;81.50;101798.28;5041674;28;20202;-67
2021/09/28 05:05:13;;;;;;;10.10;8.13;;;;;;;14.28;81.01;101807.91;5041744;28;20166;-67
2021/09/28 05:07:39;;;;;;;9.63;7.70;;;;;;;14.11;81.69;101805.97;5041772;28;20189;-68
2021/09/28 05:10:04;;;;;;;15.77;7.90;;;;;;;14.38;81.07;101812.38;5041450;28;20210;-67
2021/09/28 05:12:30;;;;;;;10.30;7.20;;;;;;;14.09;81.59;101812.94;5024097;28;20174;-68
2021/09/28 05:14:57;;;;;;;15.17;9.40;;;;;;;14.17;81.28;101820.91;5041561;28;20173;-67
2021/09/28 05:17:22;;;;;;;17.90;7.43;;;;;;;13.88;81.46;101817.91;5042224;28;20194;-67
2021/09/28 05:19:48;;;;;;;15.53;9.13;;;;;;;14.05;81.16;101821.63;5041522;28;20415;-67
2021/09/28 05:22:13;;;;;;;13.07;6.90;;;;;;;14.07;81.37;101822.53;5042207;28;20174;-66
2021/09/28 05:24:38;;;;;;;21.17;7.73;;;;;;;14.06;81.54;101825.13;5054497;28;20179;-66
2021/09/28 05:27:04;;;;;;;8.83;7.30;;;;;;;13.91;81.07;101829.31;5060691;28;20174;-67
2021/09/28 05:29:29;;;;;;;11.40;7.60;;;;;;;14.17;80.61;101825.25;5060539;28;20288;-66
2021/09/28 05:31:54;;;;;;;9.73;6.80;;;;;;;14.07;80.79;101833.03;5060319;28;20220;-67
2021/09/28 05:34:21;;;;;;;10.40;7.77;;;;;;;14.24;81.00;101840.22;5060445;28;20426;-66
2021/09/28 05:36:47;;;;;;;11.53;7.30;;;;;;;14.11;80.08;101842.69;5061445;28;20230;-66
2021/09/28 05:39:13;;;;;;;12.67;7.53;;;;;;;14.34;79.04;101844.69;5060399;28;20399;-66
2021/09/28 05:41:38;;;;;;;11.57;6.83;;;;;;;14.23;79.17;101841.06;5043191;28;20273;-67
2021/09/28 05:44:03;;;;;;;7.67;6.37;;;;;;;14.01;80.84;101843.41;5043637;28;20189;-67
2021/09/28 05:46:29;;;;;;;13.20;6.43;;;;;;;14.26;79.65;101846.34;5043284;28;20228;-67
2021/09/28 05:48:54;;;;;;;13.80;6.40;;;;;;;14.14;78.96;101845.34;5042049;28;20213;-67
2021/09/28 05:51:20;;;;;;;7.87;6.50;;;;;;;14.36;79.31;101847.38;5060404;28;20239;-68
2021/09/28 05:53:46;;;;;;;10.33;6.70;;;;;;;14.45;78.45;101850.06;5060518;28;20169;-67
2021/09/28 05:56:12;;;;;;;6.90;5.90;;;;;;;14.44;78.85;101851.81;5060658;28;20522;-67
2021/09/28 05:58:38;;;;;;;9.53;7.60;;;;;;;14.31;79.03;101861.31;5060337;28;20170;-67
2021/09/28 06:01:03;;;;;;;14.77;6.83;;;;;;;14.48;77.47;101856.25;5059052;28;20469;-68
2021/09/28 06:03:28;;;;;;;10.13;5.90;;;;;;;14.80;77.28;101854.84;5061041;28;20431;-67
2021/09/28 06:05:54;;;;;;;6.97;6.10;;;;;;;14.73;76.53;101864.41;5060399;28;20174;-68
2021/09/28 06:08:19;;;;;;;10.53;5.90;;;;;;;15.11;75.56;101861.28;5060124;28;20181;-66
2021/09/28 06:10:45;;;;;;;8.80;5.60;;;;;;;14.88;75.88;101862.81;5059667;28;20215;-68
2021/09/28 06:13:10;;;;;;;11.50;5.63;;;;;;;14.98;75.20;101869.94;5054900;28;20228;-66
2021/09/28 06:15:35;;;;;;;7.20;5.50;;;;;;;15.05;74.82;101866.47;5057830;28;20265;-65
2021/09/28 06:18:01;;;;;;;8.00;4.87;;;;;;;15.60;71.65;101870.41;5058649;28;20458;-65
2021/09/28 06:20:26;;;;;;;9.17;5.50;;;;;;;15.42;72.36;101869.41;5059329;28;20268;-68
2021/09/28 06:22:51;;;;;;;6.53;5.10;;;;;;;15.59;72.52;101876.56;5042051;28;20269;-66
2021/09/28 06:25:17;;;;;;;6.93;4.87;;;;;;;15.36;73.43;101878.97;5059275;28;20196;-67
2021/09/28 06:27:42;;;;;;;6.50;4.93;;;;;;;15.39;73.31;101887.78;5059286;28;20173;-67
2021/09/28 06:30:08;;;;;;;11.27;5.23;;;;;;;15.14;73.34;101881.41;5052798;28;20198;-66
2021/09/28 06:32:33;;;;;;;7.50;4.93;;;;;;;14.92;75.13;101886.47;5040840;28;20265;-65
2021/09/28 06:34:59;;;;;;;12.53;5.27;;;;;;;15.27;73.88;101888.56;5041388;28;20243;-64
2021/09/28 06:37:24;;;;;;;8.03;5.17;;;;;;;15.31;72.22;101892.97;5043803;28;20186;-68
2021/09/28 06:39:49;;;;;;;7.50;4.83;;;;;;;16.03;71.13;101898.75;5046899;28;20202;-67
2021/09/28 06:42:15;;;;;;;7.23;4.30;;;;;;;16.75;67.43;101892.91;5054267;28;20186;-66
2021/09/28 06:44:40;;;;;;;5.00;4.20;;;;;;;17.55;63.30;101892.13;5059068;28;20174;-66
2021/09/28 06:47:06;;;;;;;5.03;4.20;;;;;;;18.50;60.76;101898.94;5040091;28;20185;-67
2021/09/28 06:49:31;;;;;;;8.73;4.73;;;;;;;17.47;63.70;101900.06;5039624;28;20404;-68
2021/09/28 06:51:57;;;;;;;6.67;4.30;;;;;;;17.61;63.94;101900.03;5039114;28;20226;-68
2021/09/28 06:54:23;;;;;;;9.23;4.93;;;;;;;16.96;65.65;101900.00;5048754;28;20177;-68
2021/09/28 06:56:48;;;;;;;9.70;4.77;;;;;;;16.52;66.61;101906.00;5059027;28;20430;-68
2021/09/28 06:59:14;;;;;;;6.87;4.33;;;;;;;16.11;69.09;101903.19;5056742;28;20174;-68
2021/09/28 07:01:39;;;;;;;6.20;4.30;;;;;;;15.63;69.54;101908.13;5058563;28;20201;-68
2021/09/28 07:04:05;;;;;;;7.83;4.57;;;;;;;15.58;70.53;101896.69;5058734;28;20530;-65
2021/09/28 07:06:31;;;;;;;7.37;4.63;;;;;;;15.81;70.42;101901.25;5058647;28;20177;-66
2021/09/28 07:08:56;;;;;;;6.40;4.90;;;;;;;15.74;70.62;101910.81;5058544;28;20193;-68
2021/09/28 07:11:22;;;;;;;6.70;4.80;;;;;;;15.54;71.20;101907.19;5048967;28;20197;-69
2021/09/28 07:13:48;;;;;;;5.33;4.67;;;;;;;16.09;69.15;101914.59;5038225;28;20269;-68
2021/09/28 07:16:14;;;;;;;7.10;5.07;;;;;;;15.70;70.30;101909.03;5039071;28;20166;-69
2021/09/28 07:18:39;;;;;;;10.13;5.30;;;;;;;16.30;68.50;101911.19;5038789;28;20409;-69
2021/09/28 07:21:05;;;;;;;6.90;5.10;;;;;;;19.21;59.15;101905.56;5038552;28;20524;-69
2021/09/28 07:23:31;;;;;;;6.40;4.53;;;;;;;19.57;56.55;101904.38;5039299;28;20170;-69
2021/09/28 07:25:56;;;;;;;6.47;4.40;;;;;;;19.81;56.39;101908.59;5039086;28;20174;-70
2021/09/28 07:28:21;;;;;;;6.60;4.97;;;;;;;20.51;54.28;101905.13;5037760;28;20228;-69
2021/09/28 07:30:47;;;;;;;6.43;4.47;;;;;;;21.42;51.32;101906.47;5039040;28;20535;-69
2021/09/28 07:33:12;;;;;;;8.50;4.50;;;;;;;21.90;49.78;101902.09;5038531;28;20540;-70
2021/09/28 07:35:38;;;;;;;5.30;4.23;;;;;;;22.60;47.95;101902.44;5038612;28;20463;-70
2021/09/28 07:38:03;;;;;;;8.30;3.90;;;;;;;22.48;48.06;101902.72;5039071;28;20249;-69
2021/09/28 07:40:29;;;;;;;4.47;4.07;;;;;;;21.74;50.43;101910.31;5038308;28;20174;-69
2021/09/28 07:42:54;;;;;;;5.23;4.30;;;;;;;22.09;49.41;101913.22;5037695;28;20193;-69
2021/09/28 07:45:19;;;;;;;5.03;4.37;;;;;;;21.45;49.49;101906.41;5045771;28;20190;-68
2021/09/28 07:47:45;;;;;;;5.13;4.00;;;;;;;22.17;49.09;101908.63;5058233;28;20178;-68
2021/09/28 07:50:12;;;;;;;5.53;4.33;;;;;;;21.36;50.60;101907.44;5056573;28;20227;-68
2021/09/28 07:52:37;;;;;;;4.10;3.70;;;;;;;21.64;49.61;101906.13;5057724;28;20225;-66
2021/09/28 07:55:03;;;;;;;7.13;4.00;;;;;;;21.85;49.61;101910.13;5041057;28;20435;-67
2021/09/28 07:57:28;;;;;;;4.40;3.70;;;;;;;20.54;52.84;101910.41;5058298;28;20207;-66
2021/09/28 07:59:54;;;;;;;4.27;3.87;;;;;;;21.33;51.56;101907.47;5057845;28;20181;-67
2021/09/28 08:02:20;;;;;;;6.63;4.10;;;;;;;21.11;51.23;101912.25;5040923;28;20170;-66
2021/09/28 08:04:46;;;;;;;7.20;4.10;;;;;;;21.62;50.34;101918.50;5046040;28;20201;-68
2021/09/28 08:07:13;;;;;;;6.40;4.00;;;;;;;21.57;50.55;101915.06;5058032;28;20462;-67
2021/09/28 08:09:39;;;;;;;7.70;4.30;;;;;;;22.29;48.79;101912.84;5057577;28;20459;-67
2021/09/28 08:12:06;;;;;;;6.80;4.53;;;;;;;23.49;45.75;101915.44;5053487;28;20507;-67
2021/09/28 08:14:31;;;;;;;3.90;3.60;;;;;;;24.29;44.04;101907.06;5042066;28;20501;-68
2021/09/28 08:16:57;;;;;;;4.97;3.90;;;;;;;24.57;42.98;101908.03;5057229;28;20835;-67
2021/09/28 08:19:22;;;;;;;5.47;3.77;;;;;;;24.34;43.69;101901.59;5055490;28;20215;-69
2021/09/28 08:21:47;;;;;;;4.50;3.73;;;;;;;24.62;43.28;101911.47;5057306;28;20191;-68
2021/09/28 08:24:13;;;;;;;6.57;3.80;;;;;;;23.98;43.98;101910.59;5056169;28;20252;-69
2021/09/28 08:29:22;;;;;;;5.33;4.10;;;;;;;25.22;42.18;101907.75;5056094;28;20468;-69
2021/09/28 08:31:48;;;;;;;5.80;3.93;;;;;;;24.95;41.92;101919.31;5056900;28;20424;-69
2021/09/28 08:34:15;;;;;;;6.13;3.80;;;;;;;24.04;43.35;101925.53;5057885;28;20174;-69
2021/09/28 08:36:44;;;;;;;5.70;3.60;;;;;;;24.28;43.03;101917.78;5057486;28;20196;-69
2021/09/28 08:39:15;;;;;;;5.40;4.90;;;;;;;24.99;41.17;101920.97;5058178;28;20430;-69
2021/09/28 08:41:43;;;;;;;6.90;3.90;;;;;;;24.30;42.68;101923.91;5059595;28;20432;-68
2021/09/28 08:44:08;;;;;;;3.60;3.17;;;;;;;25.39;40.43;101915.19;5058060;28;20427;-68
2021/09/28 08:46:33;;;;;;;6.27;3.73;;;;;;;26.68;38.16;101908.78;5057916;28;20805;-70
2021/09/28 08:48:59;;;;;;;5.70;4.37;;;;;;;26.21;39.41;101922.16;5057342;28;20213;-69
2021/09/28 08:51:24;;;;;;;4.43;3.47;;;;;;;26.52;37.88;101920.97;5040108;28;20538;-68
2021/09/28 08:53:52;;;;;;;11.00;3.53;;;;;;;24.98;41.57;101924.56;5057694;28;20627;-68
2021/09/28 08:56:17;;;;;;;6.50;3.80;;;;;;;26.71;38.09;101916.69;5057028;28;20418;-68
2021/09/28 08:59:02;;;;;;;7.33;4.50;;;;;;;27.75;36.50;101916.91;5040012;28;20511;-69
2021/09/28 09:01:31;;;;;;;7.40;4.43;;;;;;;26.45;38.73;101924.81;5057253;28;20185;-68
2021/09/28 09:04:18;;;;;;;7.03;3.83;;;;;;;26.08;38.36;101923.56;5057430;28;20420;-67
2021/09/28 09:06:46;;;;;;;10.90;4.27;;;;;;;26.26;38.21;101928.19;5056689;28;20420;-67
2021/09/28 09:09:16;;;;;;;7.70;3.40;;;;;;;25.71;39.75;101925.72;5057167;28;20884;-67
2021/09/28 09:11:43;;;;;;;4.40;4.00;;;;;;;25.46;39.40;101934.56;5055539;28;20741;-67
2021/09/28 09:14:19;;;;;;;4.17;3.67;;;;;;;26.47;37.67;101921.16;5057262;28;20431;-67
2021/09/28 09:16:47;;;;;;;4.20;3.30;;;;;;;25.49;38.09;101930.91;5056927;28;20705;-67
2021/09/28 09:19:22;;;;;;;11.23;3.70;;;;;;;26.29;38.77;101927.22;5057243;28;20412;-68
2021/09/28 09:21:50;;;;;;;3.77;3.37;;;;;;;25.96;38.40;101925.69;5057253;28;20438;-67
2021/09/28 09:24:41;;;;;;;5.63;3.57;;;;;;;27.99;34.93;101921.16;5056527;28;20420;-66
2021/09/28 09:27:14;;;;;;;5.53;3.00;;;;;;;26.75;36.41;101928.16;5037848;28;20436;-68
2021/09/28 09:29:40;;;;;;;2.90;2.53;;;;;;;26.60;36.41;101928.72;5053861;28;20463;-67
2021/09/28 09:32:05;;;;;;;4.33;2.50;;;;;;;25.86;38.02;101929.66;5057232;28;20914;-69
2021/09/28 09:34:31;;;;;;;4.33;2.47;;;;;;;26.33;36.07;101931.50;5039700;28;20432;-69
2021/09/28 09:36:59;;;;;;;3.20;2.70;;;;;;;27.10;35.10;101928.50;5043558;28;20170;-69
2021/09/28 09:39:28;;;;;;;6.97;2.90;;;;;;;26.11;37.09;101929.63;5060634;28;20184;-70
2021/09/28 09:42:05;;;;;;;3.27;2.97;;;;;;;27.11;35.69;101922.22;5059813;28;20678;-69
2021/09/28 09:44:31;;;;;;;2.70;2.47;;;;;;;26.76;35.20;101915.63;5061000;28;20407;-70
2021/09/28 09:46:58;;;;;;;4.33;2.87;;;;;;;26.85;35.63;101916.13;5060317;28;20673;-68
2021/09/28 09:49:25;;;;;;;4.43;2.83;;;;;;;26.06;35.53;101923.63;5060412;28;20636;-68
2021/09/28 09:51:53;;;;;;;3.33;3.03;;;;;;;26.43;36.89;101913.34;5060199;28;20572;-68
2021/09/28 09:54:40;;;;;;;4.10;2.50;;;;;;;25.98;36.74;101922.97;5060213;28;20428;-69
2021/09/28 09:57:06;;;;;;;4.27;2.37;;;;;;;25.86;36.31;101927.84;5060657;28;21220;-70
2021/09/28 09:59:33;;;;;;;6.10;2.93;;;;;;;26.34;35.81;101915.41;5060245;28;20424;-68
2021/09/28 10:01:58;;;;;;;5.90;2.80;;;;;;;25.41;36.54;101917.84;5060113;28;20428;-69
2021/09/28 10:04:24;;;;;;;6.10;2.70;;;;;;;25.86;36.53;101924.31;5059724;28;20818;-70
2021/09/28 10:06:51;;;;;;;3.27;2.50;;;;;;;25.92;36.70;101923.19;5059988;28;20185;-70
2021/09/28 10:09:19;;;;;;;4.83;3.00;;;;;;;26.93;35.11;101917.63;5060164;28;20201;-70
2021/09/28 10:11:44;;;;;;;3.97;2.80;;;;;;;27.09;32.92;101913.41;5059244;28;20443;-69
2021/09/28 10:14:28;;;;;;;3.43;2.50;;;;;;;26.91;34.82;101917.69;5057477;28;20683;-67
2021/09/28 10:16:54;;;;;;;2.90;2.57;;;;;;;26.55;33.29;101918.22;5059303;28;20535;-69
2021/09/28 10:19:29;;;;;;;5.30;2.60;;;;;;;26.38;35.01;101914.38;5059049;28;20431;-68
2021/09/28 10:21:56;;;;;;;4.70;2.60;;;;;;;26.17;35.50;101915.19;5057921;28;20827;-69
2021/09/28 10:24:21;;;;;;;4.70;2.40;;;;;;;26.69;35.08;101914.97;5059094;28;20416;-69
2021/09/28 10:27:06;;;;;;;2.67;2.10;;;;;;;25.84;33.43;101916.34;5059286;28;20688;-69
2021/09/28 10:29:43;;;;;;;2.93;2.30;;;;;;;25.42;35.34;101908.03;5057134;28;20635;-69
2021/09/28 10:32:24;;;;;;;2.63;2.00;;;;;;;25.79;34.64;101907.63;5055645;28;20419;-68
2021/09/28 10:35:09;;;;;;;5.27;2.60;;;;;;;25.53;34.55;101906.75;5057536;28;20415;-69
2021/09/28 10:37:46;;;;;;;7.27;3.43;;;;;;;25.46;35.07;101904.31;5054720;28;20434;-69
2021/09/28 10:40:15;;;;;;;3.57;2.53;;;;;;;25.90;34.24;101901.88;5054513;28;20427;-68
2021/09/28 10:42:58;;;;;;;3.77;2.97;;;;;;;26.94;33.97;101908.66;5054159;28;20426;-68
2021/09/28 10:45:30;;;;;;;3.33;2.60;;;;;;;26.17;33.38;101897.34;5058884;28;20462;-69
2021/09/28 10:47:57;;;;;;;4.53;2.67;;;;;;;25.91;33.76;101902.75;5058621;28;20805;-68
2021/09/28 10:50:27;;;;;;;2.80;2.23;;;;;;;25.80;36.03;101906.66;5058737;28;20471;-68
2021/09/28 10:52:55;;;;;;;3.33;2.13;;;;;;;25.41;34.59;101906.28;5058740;28;20456;-69
2021/09/28 10:55:23;;;;;;;4.43;2.33;;;;;;;25.62;34.61;101904.66;5059160;28;20490;-69
2021/09/28 10:57:54;;;;;;;2.90;2.37;;;;;;;25.51;34.99;101900.56;5058957;28;20411;-69
2021/09/28 11:00:53;;;;;;;3.67;2.50;;;;;;;25.49;35.79;101905.09;5059129;28;20413;-68
2021/09/28 11:03:41;;;;;;;3.43;2.50;;;;;;;25.31;36.67;101900.34;5058325;28;20435;-67
2021/09/28 11:06:12;;;;;;;5.10;2.70;;;;;;;25.61;35.38;101894.91;5057054;28;20853;-71
2021/09/28 11:08:37;;;;;;;8.60;7.70;;;;;;;25.02;36.00;101894.19;5058582;28;20449;-70
2021/09/28 11:11:05;;;;;;;3.87;2.30;;;;;;;25.94;34.56;101894.59;5057890;28;20424;-71
2021/09/28 11:13:32;;;;;;;3.73;2.23;;;;;;;25.58;35.80;101892.34;5057697;28;20193;-71
2021/09/28 11:15:59;;;;;;;5.03;2.70;;;;;;;24.39;37.03;101894.31;5058649;28;20427;-70
2021/09/28 11:18:25;;;;;;;3.30;2.60;;;;;;;24.11;38.55;101889.84;5058917;28;20730;-71
2021/09/28 11:20:50;;;;;;;4.03;2.67;;;;;;;24.05;38.43;101893.50;5058690;28;20416;-70